sensor_id;sensor_type;location;lat;lon;timestamp;pressure;altitude;pressure_sealevel;temperature;humidity
49463;BME280;35357;51.722;0.500;2023-08-06T00:00:29;100788.26;;;9.68;100.00
49463;BME280;35357;51.722;0.500;2023-08-06T00:02:56;100789.94;;;9.99;100.00
49463;BME280;35357;51.722;0.500;2023-08-06T00:05:23;100789.50;;;9.32;100.00
49463;BME280;35357;51.722;0.500;2023-08-06T00:07:51;100803.43;;;10.03;100.00
49463;BME280;35357;51.722;0.500;2023-08-06T00:10:18;100799.50;;;9.92;100.00
49463;BME280;35357;51.722;0.500;2023-08-06T00:12:46;100806.80;;;9.94;100.00
49463;BME280;35357;51.722;0.500;2023-08-06T00:15:13;100802.61;;;9.84;100.00
49463;BME280;35357;51.722;0.500;2023-08-06T00:17:39;100804.79;;;10.12;100.00
49463;BME280;35357;51.722;0.500;2023-08-06T00:20:08;100808.13;;;9.81;100.00
49463;BME280;35357;51.722;0.500;2023-08-06T00:22:37;100809.29;;;9.38;100.00
49463;BME280;35357;51.722;0.500;2023-08-06T00:25:05;100818.55;;;9.70;100.00
49463;BME280;35357;51.722;0.500;2023-08-06T00:27:33;100823.70;;;9.34;100.00
49463;BME280;35357;51.722;0.500;2023-08-06T00:30:00;100831.72;;;9.67;100.00
49463;BME280;35357;51.722;0.500;2023-08-06T00:32:27;100829.25;;;9.72;100.00
49463;BME280;35357;51.722;0.500;2023-08-06T00:34:53;100834.30;;;9.50;100.00
49463;BME280;35357;51.722;0.500;2023-08-06T00:37:20;100831.28;;;9.84;100.00
49463;BME280;35357;51.722;0.500;2023-08-06T00:39:47;100837.52;;;9.71;100.00
49463;BME280;35357;51.722;0.500;2023-08-06T00:42:14;100841.06;;;10.25;100.00
49463;BME280;35357;51.722;0.500;2023-08-06T00:44:41;100839.77;;;9.85;100.00
49463;BME280;35357;51.722;0.500;2023-08-06T00:47:08;100846.40;;;9.79;100.00
49463;BME280;35357;51.722;0.500;2023-08-06T00:49:37;100850.24;;;9.91;100.00
49463;BME280;35357;51.722;0.500;2023-08-06T00:52:06;100855.63;;;9.59;100.00
49463;BME280;35357;51.722;0.500;2023-08-06T00:54:34;100849.25;;;9.02;100.00
49463;BME280;35357;51.722;0.500;2023-08-06T00:57:02;100856.90;;;9.79;100.00
49463;BME280;35357;51.722;0.500;2023-08-06T00:59:31;100855.50;;;8.66;100.00
49463;BME280;35357;51.722;0.500;2023-08-06T01:01:58;100855.75;;;9.36;100.00
49463;BME280;35357;51.722;0.500;2023-08-06T01:04:26;100867.76;;;9.49;100.00
49463;BME280;35357;51.722;0.500;2023-08-06T01:07:02;100867.26;;;9.68;100.00
49463;BME280;35357;51.722;0.500;2023-08-06T01:09:38;100866.27;;;9.00;100.00
49463;BME280;35357;51.722;0.500;2023-08-06T01:12:18;100864.00;;;9.68;100.00
49463;BME280;35357;51.722;0.500;2023-08-06T01:14:57;100870.67;;;9.46;100.00
49463;BME280;35357;51.722;0.500;2023-08-06T01:17:26;100876.99;;;9.52;100.00
49463;BME280;35357;51.722;0.500;2023-08-06T01:19:54;100882.71;;;9.81;100.00
49463;BME280;35357;51.722;0.500;2023-08-06T01:22:21;100878.55;;;9.29;100.00
49463;BME280;35357;51.722;0.500;2023-08-06T01:24:50;100878.02;;;9.47;100.00
49463;BME280;35357;51.722;0.500;2023-08-06T01:27:25;100879.27;;;9.91;100.00
49463;BME280;35357;51.722;0.500;2023-08-06T01:30:01;100886.37;;;9.79;100.00
49463;BME280;35357;51.722;0.500;2023-08-06T01:32:30;100888.17;;;9.40;100.00
49463;BME280;35357;51.722;0.500;2023-08-06T01:35:00;100897.91;;;9.13;100.00
49463;BME280;35357;51.722;0.500;2023-08-06T01:37:28;100892.02;;;9.58;100.00
49463;BME280;35357;51.722;0.500;2023-08-06T01:39:56;100898.43;;;9.06;100.00
49463;BME280;35357;51.722;0.500;2023-08-06T01:42:23;100896.40;;;9.35;100.00
49463;BME280;35357;51.722;0.500;2023-08-06T01:44:50;100898.57;;;8.95;100.00
49463;BME280;35357;51.722;0.500;2023-08-06T01:47:17;100902.12;;;8.36;100.00
49463;BME280;35357;51.722;0.500;2023-08-06T01:49:44;100904.90;;;8.79;100.00
49463;BME280;35357;51.722;0.500;2023-08-06T01:52:12;100909.16;;;8.22;100.00
49463;BME280;35357;51.722;0.500;2023-08-06T01:54:39;100906.75;;;8.46;100.00
49463;BME280;35357;51.722;0.500;2023-08-06T01:57:06;100912.96;;;8.55;100.00
49463;BME280;35357;51.722;0.500;2023-08-06T01:59:33;100913.50;;;8.55;100.00
49463;BME280;35357;51.722;0.500;2023-08-06T02:02:00;100922.36;;;8.58;100.00
49463;BME280;35357;51.722;0.500;2023-08-06T02:04:27;100919.86;;;9.15;100.00
49463;BME280;35357;51.722;0.500;2023-08-06T02:06:54;100924.46;;;8.13;100.00
49463;BME280;35357;51.722;0.500;2023-08-06T02:09:22;100920.74;;;8.51;100.00
49463;BME280;35357;51.722;0.500;2023-08-06T02:11:49;100924.10;;;8.42;100.00
49463;BME280;35357;51.722;0.500;2023-08-06T02:14:15;100927.47;;;8.92;100.00
49463;BME280;35357;51.722;0.500;2023-08-06T02:16:42;100934.53;;;8.58;100.00
49463;BME280;35357;51.722;0.500;2023-08-06T02:19:09;100935.77;;;8.33;100.00
49463;BME280;35357;51.722;0.500;2023-08-06T02:21:36;100937.77;;;8.70;100.00
49463;BME280;35357;51.722;0.500;2023-08-06T02:24:04;100942.99;;;8.46;100.00
49463;BME280;35357;51.722;0.500;2023-08-06T02:26:31;100945.47;;;8.71;100.00
49463;BME280;35357;51.722;0.500;2023-08-06T02:28:58;100954.35;;;8.51;100.00
49463;BME280;35357;51.722;0.500;2023-08-06T02:31:25;100944.26;;;8.89;100.00
49463;BME280;35357;51.722;0.500;2023-08-06T02:33:52;100948.48;;;8.55;100.00
49463;BME280;35357;51.722;0.500;2023-08-06T02:36:19;100949.83;;;8.38;100.00
49463;BME280;35357;51.722;0.500;2023-08-06T02:38:46;100948.08;;;8.02;100.00
49463;BME280;35357;51.722;0.500;2023-08-06T02:41:13;100952.87;;;8.09;100.00
49463;BME280;35357;51.722;0.500;2023-08-06T02:43:40;100957.97;;;7.74;100.00
49463;BME280;35357;51.722;0.500;2023-08-06T02:46:07;100958.81;;;7.92;100.00
49463;BME280;35357;51.722;0.500;2023-08-06T02:48:34;100955.59;;;8.01;100.00
49463;BME280;35357;51.722;0.500;2023-08-06T02:51:02;100961.52;;;8.10;100.00
49463;BME280;35357;51.722;0.500;2023-08-06T02:53:29;100965.33;;;7.97;100.00
49463;BME280;35357;51.722;0.500;2023-08-06T02:55:56;100964.56;;;7.71;100.00
49463;BME280;35357;51.722;0.500;2023-08-06T02:58:23;100961.89;;;7.75;100.00
49463;BME280;35357;51.722;0.500;2023-08-06T03:01:06;100971.62;;;7.68;100.00
49463;BME280;35357;51.722;0.500;2023-08-06T03:03:34;100965.80;;;6.97;100.00
49463;BME280;35357;51.722;0.500;2023-08-06T03:06:01;100968.50;;;7.52;100.00
49463;BME280;35357;51.722;0.500;2023-08-06T03:08:29;100969.78;;;7.25;100.00
49463;BME280;35357;51.722;0.500;2023-08-06T03:10:56;100969.20;;;8.02;100.00
49463;BME280;35357;51.722;0.500;2023-08-06T03:13:23;100970.11;;;7.79;100.00
49463;BME280;35357;51.722;0.500;2023-08-06T03:15:53;100975.69;;;7.67;100.00
49463;BME280;35357;51.722;0.500;2023-08-06T03:18:21;100977.31;;;8.01;100.00
49463;BME280;35357;51.722;0.500;2023-08-06T03:20:49;100979.57;;;8.00;100.00
49463;BME280;35357;51.722;0.500;2023-08-06T03:23:16;100972.75;;;7.45;100.00
49463;BME280;35357;51.722;0.500;2023-08-06T03:25:43;100973.39;;;7.68;100.00
49463;BME280;35357;51.722;0.500;2023-08-06T03:28:11;100965.45;;;8.40;100.00
49463;BME280;35357;51.722;0.500;2023-08-06T03:30:38;100969.29;;;7.78;100.00
49463;BME280;35357;51.722;0.500;2023-08-06T03:33:06;100970.12;;;7.61;100.00
49463;BME280;35357;51.722;0.500;2023-08-06T03:35:33;100975.95;;;7.43;100.00
49463;BME280;35357;51.722;0.500;2023-08-06T03:38:01;100984.89;;;7.47;100.00
49463;BME280;35357;51.722;0.500;2023-08-06T03:40:28;100987.32;;;7.49;100.00
49463;BME280;35357;51.722;0.500;2023-08-06T03:42:55;100991.06;;;7.81;100.00
49463;BME280;35357;51.722;0.500;2023-08-06T03:45:22;100990.29;;;7.38;100.00
49463;BME280;35357;51.722;0.500;2023-08-06T03:47:49;100992.76;;;7.63;100.00
49463;BME280;35357;51.722;0.500;2023-08-06T03:50:16;100989.33;;;7.23;100.00
49463;BME280;35357;51.722;0.500;2023-08-06T03:52:42;100998.70;;;7.33;100.00
49463;BME280;35357;51.722;0.500;2023-08-06T03:55:09;100992.47;;;7.00;100.00
49463;BME280;35357;51.722;0.500;2023-08-06T03:57:36;101002.58;;;7.32;100.00
49463;BME280;35357;51.722;0.500;2023-08-06T04:00:04;101003.31;;;7.49;100.00
49463;BME280;35357;51.722;0.500;2023-08-06T04:02:31;101006.99;;;7.34;100.00
49463;BME280;35357;51.722;0.500;2023-08-06T04:04:58;101009.19;;;7.39;100.00
49463;BME280;35357;51.722;0.500;2023-08-06T04:07:25;101007.76;;;7.48;100.00
49463;BME280;35357;51.722;0.500;2023-08-06T04:09:54;101009.31;;;6.86;100.00
49463;BME280;35357;51.722;0.500;2023-08-06T04:12:21;101002.95;;;7.08;100.00
49463;BME280;35357;51.722;0.500;2023-08-06T04:14:49;101005.24;;;6.89;100.00
49463;BME280;35357;51.722;0.500;2023-08-06T04:17:16;101006.61;;;7.35;100.00
49463;BME280;35357;51.722;0.500;2023-08-06T04:19:43;101010.96;;;6.94;100.00
49463;BME280;35357;51.722;0.500;2023-08-06T04:22:10;101012.06;;;7.55;100.00
49463;BME280;35357;51.722;0.500;2023-08-06T04:24:36;101013.32;;;6.68;100.00
49463;BME280;35357;51.722;0.500;2023-08-06T04:27:04;101022.61;;;7.66;100.00
49463;BME280;35357;51.722;0.500;2023-08-06T04:29:31;101022.34;;;6.86;100.00
49463;BME280;35357;51.722;0.500;2023-08-06T04:31:58;101026.70;;;7.02;100.00
49463;BME280;35357;51.722;0.500;2023-08-06T04:34:25;101032.64;;;6.97;100.00
49463;BME280;35357;51.722;0.500;2023-08-06T04:36:51;101030.03;;;6.67;100.00
49463;BME280;35357;51.722;0.500;2023-08-06T04:39:18;101035.85;;;6.77;100.00
49463;BME280;35357;51.722;0.500;2023-08-06T04:41:45;101033.75;;;6.95;100.00
49463;BME280;35357;51.722;0.500;2023-08-06T04:44:13;101038.07;;;7.17;100.00
49463;BME280;35357;51.722;0.500;2023-08-06T04:46:39;101044.39;;;6.98;100.00
49463;BME280;35357;51.722;0.500;2023-08-06T04:49:06;101051.06;;;7.10;100.00
49463;BME280;35357;51.722;0.500;2023-08-06T04:51:33;101052.90;;;7.09;100.00
49463;BME280;35357;51.722;0.500;2023-08-06T04:54:00;101059.56;;;6.99;100.00
49463;BME280;35357;51.722;0.500;2023-08-06T04:56:27;101060.56;;;6.79;100.00
49463;BME280;35357;51.722;0.500;2023-08-06T04:58:54;101064.29;;;7.23;100.00
49463;BME280;35357;51.722;0.500;2023-08-06T05:01:21;101062.88;;;6.66;100.00
49463;BME280;35357;51.722;0.500;2023-08-06T05:03:48;101064.77;;;7.02;100.00
49463;BME280;35357;51.722;0.500;2023-08-06T05:06:15;101068.31;;;7.43;100.00
49463;BME280;35357;51.722;0.500;2023-08-06T05:08:41;101067.66;;;7.22;100.00
49463;BME280;35357;51.722;0.500;2023-08-06T05:11:09;101069.80;;;7.38;100.00
49463;BME280;35357;51.722;0.500;2023-08-06T05:13:36;101072.54;;;7.49;100.00
49463;BME280;35357;51.722;0.500;2023-08-06T05:16:03;101068.65;;;7.29;100.00
49463;BME280;35357;51.722;0.500;2023-08-06T05:18:30;101075.37;;;7.07;100.00
49463;BME280;35357;51.722;0.500;2023-08-06T05:20:57;101074.31;;;7.09;100.00
49463;BME280;35357;51.722;0.500;2023-08-06T05:23:23;101081.74;;;7.03;100.00
49463;BME280;35357;51.722;0.500;2023-08-06T05:25:50;101082.26;;;7.47;100.00
49463;BME280;35357;51.722;0.500;2023-08-06T05:28:18;101090.71;;;7.71;100.00
49463;BME280;35357;51.722;0.500;2023-08-06T05:30:44;101088.99;;;7.40;100.00
49463;BME280;35357;51.722;0.500;2023-08-06T05:33:12;101094.33;;;7.39;100.00
49463;BME280;35357;51.722;0.500;2023-08-06T05:35:40;101093.67;;;7.38;100.00
49463;BME280;35357;51.722;0.500;2023-08-06T05:38:08;101101.38;;;7.48;100.00
49463;BME280;35357;51.722;0.500;2023-08-06T05:40:35;101101.28;;;7.15;100.00
49463;BME280;35357;51.722;0.500;2023-08-06T05:43:02;101109.99;;;7.28;100.00
49463;BME280;35357;51.722;0.500;2023-08-06T05:45:29;101111.89;;;7.19;100.00
49463;BME280;35357;51.722;0.500;2023-08-06T05:47:56;101118.07;;;7.92;100.00
49463;BME280;35357;51.722;0.500;2023-08-06T05:50:23;101117.32;;;7.86;100.00
49463;BME280;35357;51.722;0.500;2023-08-06T05:52:50;101119.74;;;7.87;100.00
49463;BME280;35357;51.722;0.500;2023-08-06T05:55:17;101123.60;;;7.69;100.00
49463;BME280;35357;51.722;0.500;2023-08-06T05:57:44;101131.39;;;7.51;100.00
49463;BME280;35357;51.722;0.500;2023-08-06T06:00:11;101132.31;;;8.07;100.00
49463;BME280;35357;51.722;0.500;2023-08-06T06:02:38;101137.44;;;8.37;100.00
49463;BME280;35357;51.722;0.500;2023-08-06T06:05:06;101135.51;;;8.15;100.00
49463;BME280;35357;51.722;0.500;2023-08-06T06:07:33;101135.84;;;7.58;100.00
49463;BME280;35357;51.722;0.500;2023-08-06T06:10:00;101142.23;;;8.65;100.00
49463;BME280;35357;51.722;0.500;2023-08-06T06:12:27;101145.44;;;8.56;100.00
49463;BME280;35357;51.722;0.500;2023-08-06T06:14:54;101142.33;;;7.70;100.00
49463;BME280;35357;51.722;0.500;2023-08-06T06:17:21;101153.21;;;8.26;100.00
49463;BME280;35357;51.722;0.500;2023-08-06T06:19:48;101155.11;;;9.15;100.00
49463;BME280;35357;51.722;0.500;2023-08-06T06:22:15;101157.65;;;9.13;100.00
49463;BME280;35357;51.722;0.500;2023-08-06T06:24:42;101161.81;;;8.99;100.00
49463;BME280;35357;51.722;0.500;2023-08-06T06:27:09;101156.36;;;9.94;100.00
49463;BME280;35357;51.722;0.500;2023-08-06T06:29:35;101162.17;;;8.49;100.00
49463;BME280;35357;51.722;0.500;2023-08-06T06:32:03;101161.79;;;8.52;100.00
49463;BME280;35357;51.722;0.500;2023-08-06T06:34:30;101163.99;;;8.69;100.00
49463;BME280;35357;51.722;0.500;2023-08-06T06:36:58;101168.10;;;9.22;100.00
49463;BME280;35357;51.722;0.500;2023-08-06T06:39:24;101167.59;;;8.78;100.00
49463;BME280;35357;51.722;0.500;2023-08-06T06:41:51;101166.56;;;8.66;100.00
49463;BME280;35357;51.722;0.500;2023-08-06T06:44:18;101173.07;;;9.33;100.00
49463;BME280;35357;51.722;0.500;2023-08-06T06:46:45;101173.40;;;9.14;100.00
49463;BME280;35357;51.722;0.500;2023-08-06T06:49:12;101175.44;;;9.67;100.00
49463;BME280;35357;51.722;0.500;2023-08-06T06:51:39;101176.90;;;8.96;100.00
49463;BME280;35357;51.722;0.500;2023-08-06T06:54:06;101177.58;;;9.32;100.00
49463;BME280;35357;51.722;0.500;2023-08-06T06:56:33;101180.57;;;9.44;100.00
49463;BME280;35357;51.722;0.500;2023-08-06T06:59:00;101177.44;;;9.88;100.00
49463;BME280;35357;51.722;0.500;2023-08-06T07:01:27;101177.59;;;9.67;100.00
49463;BME280;35357;51.722;0.500;2023-08-06T07:03:53;101190.90;;;10.74;100.00
49463;BME280;35357;51.722;0.500;2023-08-06T07:06:20;101181.79;;;9.99;100.00
49463;BME280;35357;51.722;0.500;2023-08-06T07:08:47;101188.17;;;10.73;100.00
49463;BME280;35357;51.722;0.500;2023-08-06T07:11:14;101185.30;;;10.42;100.00
49463;BME280;35357;51.722;0.500;2023-08-06T07:13:41;101189.35;;;10.13;100.00
49463;BME280;35357;51.722;0.500;2023-08-06T07:16:07;101191.29;;;10.26;100.00
49463;BME280;35357;51.722;0.500;2023-08-06T07:18:34;101194.38;;;9.84;100.00
49463;BME280;35357;51.722;0.500;2023-08-06T07:21:01;101197.37;;;10.69;100.00
49463;BME280;35357;51.722;0.500;2023-08-06T07:23:28;101200.50;;;9.58;100.00
49463;BME280;35357;51.722;0.500;2023-08-06T07:25:56;101208.37;;;9.55;100.00
49463;BME280;35357;51.722;0.500;2023-08-06T07:28:23;101207.66;;;10.78;100.00
49463;BME280;35357;51.722;0.500;2023-08-06T07:30:50;101208.64;;;9.26;100.00
49463;BME280;35357;51.722;0.500;2023-08-06T07:33:17;101207.01;;;9.48;100.00
49463;BME280;35357;51.722;0.500;2023-08-06T07:35:44;101201.52;;;10.25;100.00
49463;BME280;35357;51.722;0.500;2023-08-06T07:38:10;101211.35;;;10.60;100.00
49463;BME280;35357;51.722;0.500;2023-08-06T07:40:38;101208.92;;;9.83;100.00
49463;BME280;35357;51.722;0.500;2023-08-06T07:43:06;101207.74;;;10.11;100.00
49463;BME280;35357;51.722;0.500;2023-08-06T07:45:33;101207.96;;;10.57;100.00
49463;BME280;35357;51.722;0.500;2023-08-06T07:48:00;101212.14;;;9.91;100.00
49463;BME280;35357;51.722;0.500;2023-08-06T07:50:27;101209.97;;;10.46;100.00
49463;BME280;35357;51.722;0.500;2023-08-06T07:52:54;101218.97;;;10.94;100.00
49463;BME280;35357;51.722;0.500;2023-08-06T07:55:20;101213.73;;;9.85;100.00
49463;BME280;35357;51.722;0.500;2023-08-06T07:57:47;101221.09;;;10.21;100.00
49463;BME280;35357;51.722;0.500;2023-08-06T08:00:14;101220.25;;;10.24;100.00
49463;BME280;35357;51.722;0.500;2023-08-06T08:02:41;101216.40;;;10.86;100.00
49463;BME280;35357;51.722;0.500;2023-08-06T08:05:08;101216.88;;;10.88;100.00
49463;BME280;35357;51.722;0.500;2023-08-06T08:07:35;101224.49;;;10.50;100.00
49463;BME280;35357;51.722;0.500;2023-08-06T08:10:02;101218.26;;;10.85;100.00
49463;BME280;35357;51.722;0.500;2023-08-06T08:12:30;101220.80;;;10.81;100.00
49463;BME280;35357;51.722;0.500;2023-08-06T08:14:57;101223.30;;;10.77;100.00
49463;BME280;35357;51.722;0.500;2023-08-06T08:17:24;101225.88;;;11.32;100.00
49463;BME280;35357;51.722;0.500;2023-08-06T08:19:51;101230.56;;;11.32;100.00
49463;BME280;35357;51.722;0.500;2023-08-06T08:22:18;101229.14;;;11.52;100.00
49463;BME280;35357;51.722;0.500;2023-08-06T08:24:44;101233.48;;;11.64;100.00
49463;BME280;35357;51.722;0.500;2023-08-06T08:27:12;101229.86;;;12.08;100.00
49463;BME280;35357;51.722;0.500;2023-08-06T08:29:39;101232.72;;;11.82;100.00
49463;BME280;35357;51.722;0.500;2023-08-06T08:32:06;101230.25;;;12.02;100.00
49463;BME280;35357;51.722;0.500;2023-08-06T08:34:33;101236.37;;;12.53;100.00
49463;BME280;35357;51.722;0.500;2023-08-06T08:37:00;101239.92;;;12.42;100.00
49463;BME280;35357;51.722;0.500;2023-08-06T08:39:26;101234.26;;;12.03;100.00
49463;BME280;35357;51.722;0.500;2023-08-06T08:41:53;101230.78;;;11.28;100.00
49463;BME280;35357;51.722;0.500;2023-08-06T08:44:20;101235.39;;;12.50;100.00
49463;BME280;35357;51.722;0.500;2023-08-06T08:46:48;101233.13;;;12.43;100.00
49463;BME280;35357;51.722;0.500;2023-08-06T08:49:15;101227.33;;;12.83;100.00
49463;BME280;35357;51.722;0.500;2023-08-06T08:51:44;101232.80;;;12.08;100.00
49463;BME280;35357;51.722;0.500;2023-08-06T08:54:13;101224.94;;;12.30;100.00
49463;BME280;35357;51.722;0.500;2023-08-06T08:56:41;101235.29;;;12.03;100.00
49463;BME280;35357;51.722;0.500;2023-08-06T08:59:10;101234.41;;;12.57;100.00
49463;BME280;35357;51.722;0.500;2023-08-06T09:01:37;101238.15;;;12.51;100.00
49463;BME280;35357;51.722;0.500;2023-08-06T09:04:05;101234.73;;;12.92;100.00
49463;BME280;35357;51.722;0.500;2023-08-06T09:06:38;101240.51;;;12.32;100.00
49463;BME280;35357;51.722;0.500;2023-08-06T09:09:08;101248.42;;;12.93;99.95
49463;BME280;35357;51.722;0.500;2023-08-06T09:11:43;101247.92;;;12.53;100.00
49463;BME280;35357;51.722;0.500;2023-08-06T09:14:12;101245.66;;;13.44;99.14
49463;BME280;35357;51.722;0.500;2023-08-06T09:16:39;101249.17;;;13.35;100.00
49463;BME280;35357;51.722;0.500;2023-08-06T09:19:07;101249.21;;;12.09;100.00
49463;BME280;35357;51.722;0.500;2023-08-06T09:21:37;101255.71;;;11.82;100.00
49463;BME280;35357;51.722;0.500;2023-08-06T09:24:07;101249.12;;;12.15;100.00
49463;BME280;35357;51.722;0.500;2023-08-06T09:26:36;101249.02;;;12.30;100.00
49463;BME280;35357;51.722;0.500;2023-08-06T09:29:05;101243.49;;;12.55;100.00
49463;BME280;35357;51.722;0.500;2023-08-06T09:31:33;101254.98;;;12.94;99.32
49463;BME280;35357;51.722;0.500;2023-08-06T09:34:11;101260.90;;;12.51;96.11
49463;BME280;35357;51.722;0.500;2023-08-06T09:36:40;101262.88;;;13.15;93.04
49463;BME280;35357;51.722;0.500;2023-08-06T09:39:13;101265.88;;;12.41;92.89
49463;BME280;35357;51.722;0.500;2023-08-06T09:41:40;101262.68;;;12.55;94.72
49463;BME280;35357;51.722;0.500;2023-08-06T09:44:16;101272.43;;;13.04;91.44
49463;BME280;35357;51.722;0.500;2023-08-06T09:46:46;101269.21;;;13.19;92.04
49463;BME280;35357;51.722;0.500;2023-08-06T09:49:13;101273.67;;;13.53;89.24
49463;BME280;35357;51.722;0.500;2023-08-06T09:51:41;101276.67;;;13.94;89.28
49463;BME280;35357;51.722;0.500;2023-08-06T09:54:08;101275.30;;;13.29;84.88
49463;BME280;35357;51.722;0.500;2023-08-06T09:56:37;101283.96;;;13.63;86.34
49463;BME280;35357;51.722;0.500;2023-08-06T09:59:04;101285.58;;;14.00;82.86
49463;BME280;35357;51.722;0.500;2023-08-06T10:01:32;101283.80;;;13.77;81.59
49463;BME280;35357;51.722;0.500;2023-08-06T10:04:00;101287.65;;;14.97;79.14
49463;BME280;35357;51.722;0.500;2023-08-06T10:06:29;101292.91;;;13.89;80.72
49463;BME280;35357;51.722;0.500;2023-08-06T10:08:56;101291.03;;;13.95;79.11
49463;BME280;35357;51.722;0.500;2023-08-06T10:11:24;101301.51;;;13.72;81.05
49463;BME280;35357;51.722;0.500;2023-08-06T10:13:55;101299.16;;;13.75;80.40
49463;BME280;35357;51.722;0.500;2023-08-06T10:16:25;101302.14;;;13.48;84.12
49463;BME280;35357;51.722;0.500;2023-08-06T10:18:54;101305.51;;;14.15;81.64
49463;BME280;35357;51.722;0.500;2023-08-06T10:21:23;101310.33;;;14.07;79.82
49463;BME280;35357;51.722;0.500;2023-08-06T10:23:54;101319.19;;;14.21;77.84
49463;BME280;35357;51.722;0.500;2023-08-06T10:26:25;101313.73;;;14.50;76.87
49463;BME280;35357;51.722;0.500;2023-08-06T10:28:53;101313.98;;;14.81;74.64
49463;BME280;35357;51.722;0.500;2023-08-06T10:31:19;101314.03;;;15.08;72.94
49463;BME280;35357;51.722;0.500;2023-08-06T10:33:47;101321.34;;;14.69;74.29
49463;BME280;35357;51.722;0.500;2023-08-06T10:36:15;101316.89;;;13.76;76.09
49463;BME280;35357;51.722;0.500;2023-08-06T10:38:46;101326.52;;;14.52;75.49
49463;BME280;35357;51.722;0.500;2023-08-06T10:41:17;101320.84;;;14.03;76.55
49463;BME280;35357;51.722;0.500;2023-08-06T10:43:47;101321.49;;;14.48;76.32
49463;BME280;35357;51.722;0.500;2023-08-06T10:46:22;101323.95;;;13.52;75.97
49463;BME280;35357;51.722;0.500;2023-08-06T10:48:50;101326.34;;;13.58;75.71
49463;BME280;35357;51.722;0.500;2023-08-06T10:51:17;101323.21;;;14.12;74.20
49463;BME280;35357;51.722;0.500;2023-08-06T10:53:46;101323.26;;;14.83;73.14
49463;BME280;35357;51.722;0.500;2023-08-06T10:56:14;101327.36;;;14.68;72.86
49463;BME280;35357;51.722;0.500;2023-08-06T10:58:42;101326.61;;;14.36;71.91
49463;BME280;35357;51.722;0.500;2023-08-06T11:01:10;101326.98;;;14.48;71.59
49463;BME280;35357;51.722;0.500;2023-08-06T11:03:38;101323.28;;;14.92;68.34
49463;BME280;35357;51.722;0.500;2023-08-06T11:06:07;101329.42;;;14.50;70.03
49463;BME280;35357;51.722;0.500;2023-08-06T11:08:36;101315.15;;;14.97;67.75
49463;BME280;35357;51.722;0.500;2023-08-06T11:11:11;101319.29;;;15.51;66.70
49463;BME280;35357;51.722;0.500;2023-08-06T11:13:39;101317.87;;;16.07;66.88
49463;BME280;35357;51.722;0.500;2023-08-06T11:16:08;101317.29;;;15.22;68.20
49463;BME280;35357;51.722;0.500;2023-08-06T11:18:36;101321.89;;;15.45;67.66
49463;BME280;35357;51.722;0.500;2023-08-06T11:21:03;101328.30;;;15.07;69.73
49463;BME280;35357;51.722;0.500;2023-08-06T11:23:31;101335.16;;;14.22;69.54
49463;BME280;35357;51.722;0.500;2023-08-06T11:25:58;101333.64;;;14.26;68.70
49463;BME280;35357;51.722;0.500;2023-08-06T11:28:25;101338.44;;;14.47;67.84
49463;BME280;35357;51.722;0.500;2023-08-06T11:30:53;101330.87;;;15.31;65.85
49463;BME280;35357;51.722;0.500;2023-08-06T11:33:20;101329.87;;;15.37;63.40
49463;BME280;35357;51.722;0.500;2023-08-06T11:35:48;101336.37;;;15.09;66.80
49463;BME280;35357;51.722;0.500;2023-08-06T11:38:15;101330.86;;;15.15;63.64
49463;BME280;35357;51.722;0.500;2023-08-06T11:40:43;101321.13;;;15.16;65.74
49463;BME280;35357;51.722;0.500;2023-08-06T11:43:11;101335.47;;;15.40;65.30
49463;BME280;35357;51.722;0.500;2023-08-06T11:45:38;101319.51;;;15.58;65.78
49463;BME280;35357;51.722;0.500;2023-08-06T11:48:06;101324.84;;;14.88;64.38
49463;BME280;35357;51.722;0.500;2023-08-06T11:50:36;101312.27;;;14.77;65.97
49463;BME280;35357;51.722;0.500;2023-08-06T11:53:03;101312.94;;;15.06;64.47
49463;BME280;35357;51.722;0.500;2023-08-06T11:55:31;101314.23;;;15.09;64.28
49463;BME280;35357;51.722;0.500;2023-08-06T11:58:03;101312.56;;;16.06;61.22
49463;BME280;35357;51.722;0.500;2023-08-06T12:00:31;101306.83;;;15.57;61.72
49463;BME280;35357;51.722;0.500;2023-08-06T12:02:58;101302.75;;;15.12;64.30
49463;BME280;35357;51.722;0.500;2023-08-06T12:05:30;101319.04;;;15.33;64.27
49463;BME280;35357;51.722;0.500;2023-08-06T12:07:59;101317.31;;;16.12;59.61
49463;BME280;35357;51.722;0.500;2023-08-06T12:10:27;101324.93;;;16.40;59.64
49463;BME280;35357;51.722;0.500;2023-08-06T12:12:56;101323.35;;;16.38;57.75
49463;BME280;35357;51.722;0.500;2023-08-06T12:15:23;101329.28;;;16.03;59.63
49463;BME280;35357;51.722;0.500;2023-08-06T12:17:51;101322.73;;;16.20;58.92
49463;BME280;35357;51.722;0.500;2023-08-06T12:20:18;101326.19;;;16.03;63.47
49463;BME280;35357;51.722;0.500;2023-08-06T12:22:45;101329.18;;;15.97;62.16
49463;BME280;35357;51.722;0.500;2023-08-06T12:25:12;101320.99;;;16.41;61.53
49463;BME280;35357;51.722;0.500;2023-08-06T12:27:42;101330.22;;;14.85;63.75
49463;BME280;35357;51.722;0.500;2023-08-06T12:30:10;101318.10;;;16.28;61.61
49463;BME280;35357;51.722;0.500;2023-08-06T12:32:37;101312.69;;;16.29;59.70
49463;BME280;35357;51.722;0.500;2023-08-06T12:35:06;101313.41;;;16.62;60.06
49463;BME280;35357;51.722;0.500;2023-08-06T12:37:33;101319.46;;;17.81;56.11
49463;BME280;35357;51.722;0.500;2023-08-06T12:40:00;101317.67;;;17.68;53.65
49463;BME280;35357;51.722;0.500;2023-08-06T12:42:28;101328.16;;;17.62;54.62
49463;BME280;35357;51.722;0.500;2023-08-06T12:44:55;101325.57;;;16.74;55.05
49463;BME280;35357;51.722;0.500;2023-08-06T12:47:22;101334.93;;;16.47;57.43
49463;BME280;35357;51.722;0.500;2023-08-06T12:49:49;101327.79;;;16.70;56.71